Time;durP1;ratioP1;P1;durP2;ratioP2;P2;SDS_P1;SDS_P2;PMS_P1;PMS_P2;Temp;Humidity;BMP_temperature;BMP_pressure;BME280_temperature;BME280_humidity;BME280_pressure;Samples;Min_cycle;Max_cycle;Signal;HPM_P1;HPM_P2
2021/09/12 00:08:09;;;;;;;13.1;10;;;;;;;11.32;100;98623.66;;;;
2021/09/12 00:18:08;;;;;;;16;8.1;;;;;;;11.53;100;98624.7;;;;
2021/09/12 00:28:07;;;;;;;13.4;8.3;;;;;;;11.9;100;98626.13;;;;
2021/09/12 00:38:06;;;;;;;10.3;7.1;;;;;;;12.23;100;98620.27;;;;
2021/09/12 00:48:05;;;;;;;14.3;12.2;;;;;;;12.27;100;98629.34;;;;
2021/09/12 00:58:05;;;;;;;16.8;12;;;;;;;12.04;100;98624.05;;;;
2021/09/12 01:08:04;;;;;;;15.2;12.5;;;;;;;12;100;98612.31;;;;
2021/09/12 01:18:03;;;;;;;16.4;11.5;;;;;;;11.91;100;98616.89;;;;
2021/09/12 01:28:02;;;;;;;14.4;12.9;;;;;;;11.85;100;98611.95;;;;
2021/09/12 01:38:01;;;;;;;17.3;12.7;;;;;;;11.77;100;98610.82;;;;
2021/09/12 01:48:02;;;;;;;12.6;10.4;;;;;;;11.66;100;98617.62;;;;
2021/09/12 01:58:01;;;;;;;12.8;7.3;;;;;;;11.8;100;98620.22;;;;
2021/09/12 02:07:58;;;;;;;13.2;10.9;;;;;;;12.01;100;98621.98;;;;
2021/09/12 02:17:57;;;;;;;12.4;7.5;;;;;;;11.94;100;98621.66;;;;
2021/09/12 02:27:56;;;;;;;10.8;6.9;;;;;;;11.92;100;98609.59;;;;
2021/09/12 02:37:55;;;;;;;12.5;10.6;;;;;;;11.85;100;98620.86;;;;
2021/09/12 02:47:54;;;;;;;12.8;8.2;;;;;;;11.83;100;98617.69;;;;
2021/09/12 02:57:53;;;;;;;10.7;8.1;;;;;;;11.67;100;98627.28;;;;
2021/09/12 03:07:52;;;;;;;9.3;8.1;;;;;;;11.61;100;98632.05;;;;
2021/09/12 03:17:51;;;;;;;9.3;6.8;;;;;;;11.56;100;98634.87;;;;
2021/09/12 03:27:52;;;;;;;11.4;8.1;;;;;;;11.47;100;98636.75;;;;
2021/09/12 03:37:49;;;;;;;11.1;7.4;;;;;;;11.39;100;98625.91;;;;
2021/09/12 03:47:48;;;;;;;11.7;7.3;;;;;;;11.25;100;98628.7;;;;
2021/09/12 03:57:49;;;;;;;9.6;6.9;;;;;;;11.16;100;98641.38;;;;
2021/09/12 04:07:46;;;;;;;9.4;6.9;;;;;;;11.14;100;98632.8;;;;
2021/09/12 04:17:45;;;;;;;10.3;6.9;;;;;;;11.25;100;98647.59;;;;
2021/09/12 04:27:44;;;;;;;10.8;6.5;;;;;;;11.43;100;98640.38;;;;
2021/09/12 04:37:43;;;;;;;10.7;8.1;;;;;;;11.75;100;98648.16;;;;
2021/09/12 04:47:43;;;;;;;10.7;7.4;;;;;;;12;100;98641.23;;;;
2021/09/12 04:57:44;;;;;;;8.4;6.3;;;;;;;12.22;100;98645.72;;;;
2021/09/12 05:07:47;;;;;;;10.5;5.8;;;;;;;12.39;100;98634.92;;;;
2021/09/12 05:17:43;;;;;;;11.1;6.1;;;;;;;12.82;100;98645.69;;;;
2021/09/12 05:27:39;;;;;;;14;7.7;;;;;;;13.02;100;98637.7;;;;
2021/09/12 05:37:38;;;;;;;11.9;9.7;;;;;;;13.48;100;98650.48;;;;
2021/09/12 05:47:37;;;;;;;11.1;7.7;;;;;;;14.01;100;98660.76;;;;
2021/09/12 05:57:37;;;;;;;8.4;5.4;;;;;;;14.53;100;98661.23;;;;
2021/09/12 06:07:36;;;;;;;13.6;7.6;;;;;;;15.08;100;98665.52;;;;
2021/09/12 06:17:36;;;;;;;12.9;6.7;;;;;;;15.63;100;98658.86;;;;
2021/09/12 06:27:35;;;;;;;15.1;7.3;;;;;;;16.01;100;98676.42;;;;
2021/09/12 06:37:35;;;;;;;10.3;6.8;;;;;;;16.38;100;98679.12;;;;
2021/09/12 06:47:35;;;;;;;10.9;7.1;;;;;;;16.47;100;98679.77;;;;
2021/09/12 06:57:34;;;;;;;17.6;9.7;;;;;;;16.86;100;98676.28;;;;
2021/09/12 07:07:34;;;;;;;8.8;6.6;;;;;;;17.37;100;98673.76;;;;
2021/09/12 07:17:34;;;;;;;10.4;6.8;;;;;;;17.71;100;98684;;;;
2021/09/12 07:27:34;;;;;;;15.8;9.3;;;;;;;18.23;100;98686.42;;;;
2021/09/12 07:37:34;;;;;;;11.1;9.3;;;;;;;18.49;100;98703.02;;;;
2021/09/12 07:47:34;;;;;;;13;9.1;;;;;;;19.01;100;98705.31;;;;
2021/09/12 07:57:34;;;;;;;14.6;10.7;;;;;;;19.48;100;98709.73;;;;
2021/09/12 08:07:34;;;;;;;12.6;8.3;;;;;;;19.9;100;98705;;;;
2021/09/12 08:17:34;;;;;;;11.1;8.1;;;;;;;20.19;100;98706.25;;;;
2021/09/12 08:27:34;;;;;;;12.1;8.4;;;;;;;20.4;100;98703.87;;;;
2021/09/12 08:37:34;;;;;;;9.7;7.5;;;;;;;20.65;100;98714.38;;;;
2021/09/12 08:47:34;;;;;;;13.3;8;;;;;;;20.84;100;98709.55;;;;
2021/09/12 08:57:34;;;;;;;11.4;7.6;;;;;;;21.23;100;98710.05;;;;
2021/09/12 09:07:35;;;;;;;17.9;9.1;;;;;;;21.52;100;98708.38;;;;
2021/09/12 09:17:35;;;;;;;9.6;6.6;;;;;;;21.84;100;98703.2;;;;
2021/09/12 09:27:35;;;;;;;11.1;7.3;;;;;;;22.1;100;98702.27;;;;
2021/09/12 09:37:36;;;;;;;11.6;9.1;;;;;;;22.58;100;98690.83;;;;
2021/09/12 09:47:37;;;;;;;11.6;8.3;;;;;;;22.7;100;98697.97;;;;
2021/09/12 09:57:37;;;;;;;8.5;6.8;;;;;;;22.83;100;98690.98;;;;
2021/09/12 10:07:37;;;;;;;9.2;8;;;;;;;23.2;100;98671.47;;;;
2021/09/12 10:17:38;;;;;;;10.6;7.7;;;;;;;23.36;100;98673.88;;;;
2021/09/12 10:27:38;;;;;;;9.2;6.8;;;;;;;23.5;100;98669.2;;;;
2021/09/12 10:37:39;;;;;;;10.9;7.5;;;;;;;23.97;100;98661.76;;;;
2021/09/12 10:47:39;;;;;;;11;7.9;;;;;;;23.98;100;98652.33;;;;
2021/09/12 10:57:40;;;;;;;9;5.9;;;;;;;24.05;100;98649.57;;;;
2021/09/12 11:07:41;;;;;;;9.3;6.2;;;;;;;24.54;100;98643.17;;;;
2021/09/12 11:17:41;;;;;;;6.4;4.3;;;;;;;24.92;100;98639.5;;;;
2021/09/12 11:27:42;;;;;;;7.2;4.3;;;;;;;25.14;100;98622.84;;;;
2021/09/12 11:37:43;;;;;;;9;5.3;;;;;;;25.24;100;98624.75;;;;
2021/09/12 11:47:43;;;;;;;8.7;5.4;;;;;;;25.47;100;98608.45;;;;
2021/09/12 11:57:44;;;;;;;9;4.9;;;;;;;25.75;100;98599.19;;;;
2021/09/12 12:07:45;;;;;;;8.1;5;;;;;;;25.09;100;98584.67;;;;
2021/09/12 12:17:46;;;;;;;9.5;5.3;;;;;;;25.33;99.99609;98570.71;;;;
2021/09/12 12:27:47;;;;;;;6.6;4.3;;;;;;;25.16;97.55957;98557.83;;;;
2021/09/12 12:37:49;;;;;;;7;4.1;;;;;;;25.43;98.56836;98560.77;;;;
2021/09/12 12:47:48;;;;;;;7.3;3.7;;;;;;;25.48;99.2041;98554.8;;;;
2021/09/12 12:57:49;;;;;;;6.6;3.2;;;;;;;25.4;83.18848;98545.82;;;;
2021/09/12 13:07:50;;;;;;;7;3.7;;;;;;;25.62;82.28516;98540.91;;;;
2021/09/12 13:17:51;;;;;;;6;2.9;;;;;;;25.34;79.5293;98536.39;;;;
2021/09/12 13:27:53;;;;;;;10.1;3.7;;;;;;;25.46;80.9043;98533.15;;;;
2021/09/12 13:37:53;;;;;;;7.8;3.8;;;;;;;25.49;84.55566;98531.55;;;;
2021/09/12 13:47:54;;;;;;;6.8;4.5;;;;;;;25.69;82.43652;98524.28;;;;
2021/09/12 13:57:55;;;;;;;5;3.7;;;;;;;25.99;84.18262;98524.38;;;;
2021/09/12 14:07:55;;;;;;;7.4;3.8;;;;;;;26.25;85.07129;98516.59;;;;
2021/09/12 14:17:56;;;;;;;8.5;4.6;;;;;;;26.49;84.29883;98516.29;;;;
2021/09/12 14:27:57;;;;;;;8.9;5;;;;;;;26.27;86.75391;98515.02;;;;
2021/09/12 14:37:58;;;;;;;6.6;3.8;;;;;;;25.95;85.95996;98512.59;;;;
2021/09/12 14:47:59;;;;;;;8.3;4.4;;;;;;;26.07;85.88867;98514.02;;;;
2021/09/12 14:58:00;;;;;;;7.9;5.3;;;;;;;26.11;87.09375;98513.97;;;;
2021/09/12 15:08:01;;;;;;;7.5;4.9;;;;;;;26.44;86.86719;98510.45;;;;
2021/09/12 15:18:02;;;;;;;9.6;4.7;;;;;;;28;78.96387;98505.98;;;;
2021/09/12 15:28:03;;;;;;;6.3;3.9;;;;;;;29.37;68.73926;98506.97;;;;
2021/09/12 15:38:04;;;;;;;7.5;4.8;;;;;;;28.11;73.73535;98506.59;;;;
2021/09/12 15:48:06;;;;;;;7.8;5.2;;;;;;;28.5;76.49023;98502.99;;;;
2021/09/12 15:58:07;;;;;;;7.3;4.9;;;;;;;27.66;79.07031;98497.93;;;;
2021/09/12 16:08:08;;;;;;;6.8;4.3;;;;;;;28.3;82.8877;98494.71;;;;
2021/09/12 16:18:10;;;;;;;6.9;4.6;;;;;;;28.11;82.26758;98501.05;;;;
2021/09/12 16:28:11;;;;;;;7.7;4.8;;;;;;;26.81;84.1709;98502.03;;;;
2021/09/12 16:38:12;;;;;;;14.2;6.7;;;;;;;25.02;92.72852;98495.29;;;;
2021/09/12 16:48:13;;;;;;;6.7;4;;;;;;;23.71;99.2793;98500.55;;;;
2021/09/12 16:58:14;;;;;;;7.8;5.2;;;;;;;22.49;100;98489.86;;;;
2021/09/12 17:08:14;;;;;;;10.9;5.5;;;;;;;21.53;100;98490.56;;;;
2021/09/12 17:18:14;;;;;;;9.7;5.4;;;;;;;20.77;100;98495;;;;
2021/09/12 17:28:15;;;;;;;11;6.8;;;;;;;20.16;100;98498.22;;;;
2021/09/12 17:38:15;;;;;;;10.4;5.8;;;;;;;19.61;100;98497.86;;;;
2021/09/12 17:48:15;;;;;;;9.9;8.1;;;;;;;19.18;100;98501.09;;;;
2021/09/12 17:58:15;;;;;;;8.2;6.4;;;;;;;18.65;100;98497.44;;;;
2021/09/12 18:08:17;;;;;;;10.9;6.7;;;;;;;18.37;100;98500.39;;;;
2021/09/12 18:18:15;;;;;;;10.5;8.7;;;;;;;18.16;100;98500.77;;;;
2021/09/12 18:28:15;;;;;;;10.2;6.8;;;;;;;17.86;100;98514.17;;;;
2021/09/12 18:38:15;;;;;;;9.6;7.4;;;;;;;17.66;100;98526.19;;;;
2021/09/12 18:48:15;;;;;;;8;6.8;;;;;;;17.53;100;98530.12;;;;
2021/09/12 18:58:15;;;;;;;11.5;7.4;;;;;;;17.39;100;98527.86;;;;
2021/09/12 19:08:16;;;;;;;12.7;8.9;;;;;;;17.22;100;98538.33;;;;
2021/09/12 19:18:14;;;;;;;9.9;7.5;;;;;;;17.03;100;98556.17;;;;
2021/09/12 19:28:15;;;;;;;11.2;6.7;;;;;;;16.84;100;98553.33;;;;
2021/09/12 19:38:14;;;;;;;8.7;7.3;;;;;;;16.8;100;98554.39;;;;
2021/09/12 19:48:13;;;;;;;11.7;8;;;;;;;16.61;100;98555.05;;;;
2021/09/12 19:58:13;;;;;;;10.7;8.2;;;;;;;16.49;100;98560.5;;;;
2021/09/12 20:08:13;;;;;;;14.1;12.8;;;;;;;16.35;100;98551.94;;;;
2021/09/12 20:18:12;;;;;;;16;13.3;;;;;;;16.3;100;98563.08;;;;
2021/09/12 20:28:12;;;;;;;21.2;10.9;;;;;;;16.36;100;98562.48;;;;
2021/09/12 20:38:12;;;;;;;13.4;10.1;;;;;;;16.47;100;98549.18;;;;
2021/09/12 20:48:11;;;;;;;10.9;9.5;;;;;;;16.55;100;98554.52;;;;
2021/09/12 20:58:11;;;;;;;13.9;8.6;;;;;;;16.65;100;98555.14;;;;
2021/09/12 21:08:11;;;;;;;11.2;9.7;;;;;;;16.56;100;98553.36;;;;
2021/09/12 21:18:10;;;;;;;8.5;7.6;;;;;;;16.57;100;98560.39;;;;
2021/09/12 21:28:10;;;;;;;10.3;9;;;;;;;16.55;100;98564.58;;;;
2021/09/12 21:38:10;;;;;;;12.5;10;;;;;;;16.34;100;98562.05;;;;
2021/09/12 21:48:11;;;;;;;12.5;9.9;;;;;;;16.27;100;98572.72;;;;
2021/09/12 21:58:09;;;;;;;12.6;11.1;;;;;;;16.18;100;98569.33;;;;
2021/09/12 22:08:08;;;;;;;12.4;10.4;;;;;;;16.23;100;98579.98;;;;
2021/09/12 22:18:08;;;;;;;12.1;10.5;;;;;;;16.33;100;98578.7;;;;
2021/09/12 22:28:08;;;;;;;14.6;10.9;;;;;;;16.44;100;98569.72;;;;
2021/09/12 22:38:07;;;;;;;13.3;11;;;;;;;16.15;100;98564.59;;;;
2021/09/12 22:48:07;;;;;;;14.6;12.9;;;;;;;16.23;100;98560.16;;;;
2021/09/12 22:58:07;;;;;;;12.7;11.4;;;;;;;16.15;100;98561.08;;;;
2021/09/12 23:08:06;;;;;;;14.7;12.1;;;;;;;16.17;100;98561.53;;;;
2021/09/12 23:18:06;;;;;;;14.2;10.9;;;;;;;16.07;100;98560.06;;;;
2021/09/12 23:28:06;;;;;;;12.2;10.2;;;;;;;15.86;100;98568.38;;;;
2021/09/12 23:38:05;;;;;;;13.5;12.1;;;;;;;15.93;100;98573.27;;;;
2021/09/12 23:48:05;;;;;;;15.3;11.9;;;;;;;15.85;100;98574.17;;;;
2021/09/12 23:58:04;;;;;;;14.3;11.3;;;;;;;15.83;100;98574.5;;;;
